createdAt,value
2022-12-18T00:01:36.052Z,102438.25
2022-12-18T00:04:06.319Z,102427.72
2022-12-18T00:06:33.975Z,102444.34
2022-12-18T00:09:02.685Z,102454.78
2022-12-18T00:11:32.058Z,102451.31
2022-12-18T00:14:00.833Z,102456.50
2022-12-18T00:16:29.953Z,102441.53
2022-12-18T00:19:00.635Z,102437.06
2022-12-18T00:21:30.820Z,102441.41
2022-12-18T00:23:59.242Z,102437.91
2022-12-18T00:26:33.492Z,102432.69
2022-12-18T00:29:14.833Z,102430.06
2022-12-18T00:31:44.295Z,102425.59
2022-12-18T00:34:13.673Z,102430.78
2022-12-18T00:36:42.043Z,102427.25
2022-12-18T00:39:10.670Z,102419.22
2022-12-18T00:41:56.179Z,102418.38
2022-12-18T00:44:22.835Z,102420.13
2022-12-18T00:46:51.566Z,102425.34
2022-12-18T00:49:20.775Z,102427.97
2022-12-18T00:51:49.358Z,102419.13
2022-12-18T00:54:17.889Z,102426.09
2022-12-18T00:56:49.345Z,102423.41
2022-12-18T00:59:19.966Z,102419.84
2022-12-18T01:01:47.983Z,102410.16
2022-12-18T01:04:15.865Z,102418.00
2022-12-18T01:06:45.723Z,102415.34
2022-12-18T01:09:14.247Z,102418.84
2022-12-18T01:11:41.159Z,102423.19
2022-12-18T01:14:07.895Z,102431.91
2022-12-18T01:16:34.850Z,102436.22
2022-12-18T01:19:01.716Z,102444.06
2022-12-18T01:21:28.964Z,102440.47
2022-12-18T01:23:57.667Z,102443.97
2022-12-18T01:26:26.835Z,102439.53
2022-12-18T01:28:55.876Z,102436.06
2022-12-18T01:31:29.956Z,102432.50
2022-12-18T01:33:57.627Z,102430.72
2022-12-18T01:36:27.674Z,102435.13
2022-12-18T01:38:56.020Z,102429.22
2022-12-18T01:41:48.444Z,102427.50
2022-12-18T01:45:04.119Z,102426.53
2022-12-18T01:48:11.411Z,102418.59
2022-12-18T01:50:43.818Z,102421.13
2022-12-18T01:53:24.874Z,102417.59
2022-12-18T01:55:58.602Z,102419.34
2022-12-18T01:58:42.337Z,102413.16
2022-12-18T02:01:10.252Z,102422.75
2022-12-18T02:03:37.829Z,102423.63
2022-12-18T02:06:18.005Z,102423.63
2022-12-18T02:09:35.832Z,102421.81
2022-12-18T02:12:19.192Z,102413.00
2022-12-18T02:15:13.735Z,102413.84
2022-12-18T02:18:05.323Z,102419.88
2022-12-18T02:20:48.095Z,102421.59
2022-12-18T02:24:13.704Z,102419.72
2022-12-18T02:26:56.191Z,102419.53
2022-12-18T02:29:38.634Z,102427.41
2022-12-18T02:32:15.714Z,102422.94
2022-12-18T02:34:45.214Z,102421.19
2022-12-18T02:37:20.143Z,102418.44
2022-12-18T02:39:53.522Z,102416.72
2022-12-18T02:42:22.071Z,102415.81
2022-12-18T02:44:52.903Z,102414.13
2022-12-18T02:47:33.747Z,102411.44
2022-12-18T02:50:45.840Z,102410.56
2022-12-18T02:53:32.164Z,102401.84
2022-12-18T02:56:15.295Z,102391.34
2022-12-18T02:59:14.455Z,102392.03
2022-12-18T03:02:08.671Z,102387.56
2022-12-18T03:05:10.711Z,102388.31
2022-12-18T03:07:51.811Z,102395.31
2022-12-18T03:10:29.337Z,102394.41
2022-12-18T03:13:06.905Z,102399.59
2022-12-18T03:15:45.041Z,102395.09
2022-12-18T03:18:29.072Z,102388.91
2022-12-18T03:21:05.713Z,102389.69
2022-12-18T03:23:44.051Z,102387.88
2022-12-18T03:26:20.683Z,102383.44
2022-12-18T03:29:10.736Z,102380.78
2022-12-18T03:31:42.008Z,102381.59
2022-12-18T03:34:21.232Z,102385.03
2022-12-18T03:36:48.398Z,102378.03
2022-12-18T03:39:16.014Z,102381.50
2022-12-18T03:41:56.416Z,102367.47
2022-12-18T03:44:56.828Z,102376.25
2022-12-18T03:47:40.721Z,102369.22
2022-12-18T03:50:23.160Z,102365.75
2022-12-18T03:53:00.719Z,102355.25
2022-12-18T03:55:35.523Z,102356.16
2022-12-18T03:58:08.788Z,102352.59
2022-12-18T04:00:53.191Z,102357.03
2022-12-18T04:03:26.130Z,102348.28
2022-12-18T04:05:57.109Z,102347.47
2022-12-18T04:08:26.592Z,102334.34
2022-12-18T04:11:03.035Z,102347.50
2022-12-18T04:13:36.745Z,102336.09
2022-12-18T04:16:07.680Z,102335.22
2022-12-18T04:18:35.594Z,102322.94
2022-12-18T04:21:03.824Z,102318.56
2022-12-18T04:23:30.587Z,102317.72
2022-12-18T04:25:59.306Z,102316.00
2022-12-18T04:28:46.894Z,102323.91
2022-12-18T04:31:14.171Z,102325.69
2022-12-18T04:33:41.360Z,102314.34
2022-12-18T04:36:08.988Z,102313.44
2022-12-18T04:38:35.927Z,102308.22
2022-12-18T04:41:08.069Z,102316.16
2022-12-18T04:43:37.455Z,102325.78
2022-12-18T04:46:07.335Z,102332.78
2022-12-18T04:48:35.038Z,102334.59
2022-12-18T04:51:03.679Z,102341.63
2022-12-18T04:53:30.427Z,102339.84
2022-12-18T04:56:09.687Z,102338.09
2022-12-18T04:58:38.550Z,102345.13
2022-12-18T05:01:06.210Z,102346.88
2022-12-18T05:03:33.138Z,102353.00
2022-12-18T05:06:00.316Z,102353.00
2022-12-18T05:08:27.298Z,102363.47
2022-12-18T05:11:02.886Z,102368.66
2022-12-18T05:13:30.435Z,102373.03
2022-12-18T05:15:57.337Z,102385.25
2022-12-18T05:18:25.763Z,102379.06
2022-12-18T05:20:54.256Z,102381.75
2022-12-18T05:23:23.800Z,102376.50
2022-12-18T05:25:55.208Z,102376.50
2022-12-18T05:28:23.132Z,102378.19
2022-12-18T05:30:55.964Z,102380.78
2022-12-18T05:33:28.180Z,102368.47
2022-12-18T05:36:00.567Z,102364.84
2022-12-18T05:38:29.969Z,102358.63
2022-12-18T05:40:58.168Z,102358.53
2022-12-18T05:43:27.562Z,102356.78
2022-12-18T05:45:55.610Z,102358.47
2022-12-18T05:48:22.856Z,102354.97
2022-12-18T05:50:51.414Z,102350.66
2022-12-18T05:53:20.897Z,102349.81
2022-12-18T05:55:48.639Z,102345.44
2022-12-18T05:58:15.876Z,102345.44
2022-12-18T06:00:46.383Z,102345.50
2022-12-18T06:03:14.820Z,102339.41
2022-12-18T06:05:45.365Z,102321.88
2022-12-18T06:08:14.195Z,102328.91
2022-12-18T06:10:42.510Z,102323.66
2022-12-18T06:13:09.672Z,102316.63
2022-12-18T06:15:39.927Z,102314.06
2022-12-18T06:18:06.819Z,102311.47
2022-12-18T06:20:34.103Z,102306.28
2022-12-18T06:23:01.271Z,102310.75
2022-12-18T06:25:28.212Z,102308.16
2022-12-18T06:27:55.087Z,102311.72
2022-12-18T06:30:22.018Z,102313.47
2022-12-18T06:32:56.541Z,102320.53
2022-12-18T06:35:24.790Z,102317.03
2022-12-18T06:37:51.838Z,102320.63
2022-12-18T06:40:19.286Z,102321.50
2022-12-18T06:42:46.046Z,102317.13
2022-12-18T06:45:12.808Z,102317.13
2022-12-18T06:47:39.536Z,102313.66
2022-12-18T06:50:07.175Z,102306.63
2022-12-18T06:52:34.769Z,102308.41
2022-12-18T06:55:01.818Z,102304.91
2022-12-18T06:57:28.514Z,102302.34
2022-12-18T06:59:55.424Z,102312.94
2022-12-18T07:02:22.251Z,102301.63
2022-12-18T07:04:51.626Z,102293.81
2022-12-18T07:07:18.859Z,102289.50
2022-12-18T07:09:45.625Z,102289.50
2022-12-18T07:12:12.468Z,102291.25
2022-12-18T07:14:39.255Z,102289.59
2022-12-18T07:17:06.597Z,102287.88
2022-12-18T07:19:34.231Z,102284.47
2022-12-18T07:22:01.444Z,102274.94
2022-12-18T07:24:28.858Z,102271.50
2022-12-18T07:26:55.598Z,102272.41
2022-12-18T07:29:22.363Z,102272.50
2022-12-18T07:31:49.146Z,102276.03
2022-12-18T07:34:16.356Z,102269.06
2022-12-18T07:36:43.834Z,102267.38
2022-12-18T07:39:12.744Z,102257.75
2022-12-18T07:41:46.797Z,102264.78
2022-12-18T07:44:16.286Z,102253.50
2022-12-18T07:46:43.117Z,102255.25
2022-12-18T07:49:09.832Z,102241.31
2022-12-18T07:51:36.543Z,102239.66
2022-12-18T07:54:03.327Z,102234.44
2022-12-18T07:56:31.471Z,102236.31
2022-12-18T07:59:00.197Z,102232.97
2022-12-18T08:01:27.760Z,102223.47
2022-12-18T08:03:54.657Z,102217.41
2022-12-18T08:06:24.026Z,102216.63
2022-12-18T08:08:54.064Z,102218.50
2022-12-18T08:11:22.106Z,102217.72
2022-12-18T08:13:48.851Z,102217.81
2022-12-18T08:16:16.766Z,102222.34
2022-12-18T08:18:43.578Z,102223.31
2022-12-18T08:21:16.025Z,102228.72
2022-12-18T08:23:43.794Z,102222.69
2022-12-18T08:26:12.631Z,102228.88
2022-12-18T08:28:39.728Z,102232.50
2022-12-18T08:31:07.605Z,102237.88
2022-12-18T08:33:36.576Z,102235.38
2022-12-18T08:36:05.163Z,102237.28
2022-12-18T08:38:33.754Z,102227.75
2022-12-18T08:41:10.419Z,102235.75
2022-12-18T08:43:55.940Z,102249.00
2022-12-18T08:46:24.915Z,102236.00
2022-12-18T08:48:53.737Z,102235.16
2022-12-18T08:51:21.204Z,102215.94
2022-12-18T08:53:48.247Z,102208.09
2022-12-18T08:56:16.232Z,102205.50
2022-12-18T08:58:43.710Z,102213.47
2022-12-18T09:01:13.162Z,102225.84
2022-12-18T09:03:41.026Z,102216.28
2022-12-18T09:06:08.813Z,102214.63
2022-12-18T09:08:35.800Z,102211.22
2022-12-18T09:11:03.713Z,102215.72
2022-12-18T09:13:30.497Z,102222.00
2022-12-18T09:15:57.435Z,102222.97
2022-12-18T09:18:26.071Z,102218.69
2022-12-18T09:20:53.887Z,102211.78
2022-12-18T09:23:21.756Z,102217.16
2022-12-18T09:25:49.280Z,102228.66
2022-12-18T09:28:19.102Z,102240.19
2022-12-18T09:30:50.015Z,102235.03
2022-12-18T09:33:18.062Z,102236.91
2022-12-18T09:35:46.618Z,102230.78
2022-12-18T09:38:17.884Z,102233.50
2022-12-18T09:40:48.311Z,102228.34
2022-12-18T09:43:42.299Z,102215.22
2022-12-18T09:46:18.655Z,102207.41
2022-12-18T09:48:55.738Z,102203.94
2022-12-18T09:51:31.117Z,102205.72
2022-12-18T09:54:49.882Z,102191.72
2022-12-18T09:57:23.127Z,102185.66
2022-12-18T10:00:03.817Z,102176.06
2022-12-18T10:02:38.612Z,102173.50
2022-12-18T10:05:06.381Z,102177.13
2022-12-18T10:08:14.438Z,102173.72
2022-12-18T10:10:53.338Z,102177.28
2022-12-18T10:13:48.663Z,102176.50
2022-12-18T10:17:02.903Z,102181.84
2022-12-18T10:19:50.225Z,102180.13
2022-12-18T10:22:45.597Z,102184.63
2022-12-18T10:25:29.669Z,102175.00
2022-12-18T10:28:08.570Z,102176.81
2022-12-18T10:30:35.308Z,102174.16
2022-12-18T10:33:03.996Z,102179.47
2022-12-18T10:35:30.772Z,102175.06
2022-12-18T10:38:28.837Z,102175.94
2022-12-18T10:41:29.216Z,102161.03
2022-12-18T10:44:21.229Z,102152.19
2022-12-18T10:46:54.696Z,102148.72
2022-12-18T10:49:29.641Z,102145.25
2022-12-18T10:52:19.521Z,102129.41
2022-12-18T10:54:54.356Z,102110.06
2022-12-18T10:57:27.077Z,102112.69
2022-12-18T10:59:57.096Z,102117.13
2022-12-18T11:02:39.416Z,102105.72
2022-12-18T11:05:34.920Z,102113.66
2022-12-18T11:08:02.558Z,102104.88
2022-12-18T11:10:40.954Z,102108.38
2022-12-18T11:13:24.660Z,102113.69
2022-12-18T11:15:52.259Z,102097.84
2022-12-18T11:18:28.193Z,102100.47
2022-12-18T11:21:09.018Z,102105.78
2022-12-18T11:23:38.442Z,102104.06
2022-12-18T11:26:07.115Z,102106.72
2022-12-18T11:29:09.502Z,102091.75
2022-12-18T11:31:36.357Z,102089.09
2022-12-18T11:34:31.016Z,102087.34
2022-12-18T11:37:01.970Z,102087.38
2022-12-18T11:39:53.812Z,102085.59
2022-12-18T11:42:40.619Z,102081.19
2022-12-18T11:45:13.843Z,102091.81
2022-12-18T11:47:47.388Z,102082.97
2022-12-18T11:50:24.862Z,102089.16
2022-12-18T11:52:57.370Z,102079.47
2022-12-18T11:56:08.788Z,102069.75
2022-12-18T11:58:48.094Z,102066.22
2022-12-18T12:01:52.875Z,102068.88
2022-12-18T12:04:35.658Z,102060.03
2022-12-18T12:07:25.002Z,102062.69
2022-12-18T12:10:02.043Z,102052.09
2022-12-18T12:12:48.669Z,102038.84
2022-12-18T12:15:39.498Z,102027.38
2022-12-18T12:18:27.332Z,102032.66
2022-12-18T12:21:11.730Z,102018.50
2022-12-18T12:23:59.682Z,102035.31
2022-12-18T12:26:38.559Z,102022.06
2022-12-18T12:29:30.178Z,102025.59
2022-12-18T12:32:40.588Z,102022.06
2022-12-18T12:35:10.214Z,102021.16
2022-12-18T12:38:04.045Z,102013.22
2022-12-18T12:41:00.590Z,102005.25
2022-12-18T12:43:47.951Z,102006.13
2022-12-18T12:46:22.809Z,102006.13
2022-12-18T12:49:10.920Z,101995.50
2022-12-18T12:51:42.668Z,101987.56
2022-12-18T12:54:26.931Z,101977.84
2022-12-18T12:57:23.195Z,101977.84
2022-12-18T13:00:09.676Z,101972.56
2022-12-18T13:02:47.689Z,101970.78
2022-12-18T13:05:29.518Z,101967.22
2022-12-18T13:08:08.521Z,101954.88
2022-12-18T13:10:44.906Z,101951.31
2022-12-18T13:13:17.911Z,101948.66
2022-12-18T13:16:09.430Z,101946.03
2022-12-18T13:18:36.707Z,101946.03
2022-12-18T13:21:24.356Z,101946.00
2022-12-18T13:23:51.874Z,101953.06
2022-12-18T13:26:21.959Z,101946.00
2022-12-18T13:28:57.249Z,101942.44
2022-12-18T13:31:42.538Z,101945.97
2022-12-18T13:34:26.822Z,101938.91
2022-12-18T13:37:17.703Z,101938.03
2022-12-18T13:39:44.809Z,101942.44
2022-12-18T13:42:37.585Z,101940.69
2022-12-18T13:45:47.626Z,101944.19
2022-12-18T13:48:26.254Z,101936.25
2022-12-18T13:51:11.017Z,101932.72
2022-12-18T13:53:50.647Z,101929.16
2022-12-18T13:56:30.288Z,101923.88
2022-12-18T13:59:25.029Z,101917.69
2022-12-18T14:01:59.611Z,101913.25
2022-12-18T14:04:35.578Z,101914.16
2022-12-18T14:07:13.661Z,101910.59
2022-12-18T14:09:52.325Z,101912.38
2022-12-18T14:12:44.674Z,101903.56
2022-12-18T14:15:27.386Z,101900.91
2022-12-18T14:18:02.294Z,101907.09
2022-12-18T14:20:33.943Z,101907.97
2022-12-18T14:23:01.292Z,101908.81
2022-12-18T14:25:30.900Z,101898.22
2022-12-18T14:28:14.492Z,101898.22
2022-12-18T14:30:46.945Z,101900.88
2022-12-18T14:33:23.543Z,101914.13
2022-12-18T14:36:18.147Z,101914.13
2022-12-18T14:38:54.827Z,101910.59
2022-12-18T14:41:23.327Z,101913.25
2022-12-18T14:43:53.347Z,101907.03
2022-12-18T14:46:37.885Z,101900.81
2022-12-18T14:49:30.517Z,101894.69
2022-12-18T14:52:00.882Z,101886.72
2022-12-18T14:54:30.438Z,101885.81
2022-12-18T14:57:17.387Z,101882.31
2022-12-18T14:59:44.178Z,101888.47
2022-12-18T15:02:24.570Z,101892.91
2022-12-18T15:05:16.511Z,101887.59
2022-12-18T15:07:46.987Z,101883.16
2022-12-18T15:10:17.158Z,101891.13
2022-12-18T15:12:48.457Z,101884.94
2022-12-18T15:15:34.261Z,101883.16
2022-12-18T15:18:04.716Z,101879.59
2022-12-18T15:20:34.411Z,101878.72
2022-12-18T15:23:01.166Z,101885.78
2022-12-18T15:25:37.875Z,101873.44
2022-12-18T15:28:22.794Z,101872.50
2022-12-18T15:31:17.430Z,101873.38
2022-12-18T15:33:54.018Z,101878.63
2022-12-18T15:36:26.552Z,101869.81
2022-12-18T15:39:04.576Z,101864.56
2022-12-18T15:41:36.695Z,101861.91
2022-12-18T15:44:24.471Z,101862.81
2022-12-18T15:46:51.226Z,101878.69
2022-12-18T15:49:17.922Z,101864.56
2022-12-18T15:51:45.003Z,101871.66
2022-12-18T15:54:17.133Z,101861.94
2022-12-18T15:57:02.455Z,101864.56
2022-12-18T15:59:29.418Z,101859.25
2022-12-18T16:01:57.738Z,101861.91
2022-12-18T16:04:25.651Z,101851.28
2022-12-18T16:07:14.463Z,101842.47
2022-12-18T16:09:42.831Z,101841.66
2022-12-18T16:12:23.640Z,101841.66
2022-12-18T16:14:51.165Z,101824.00
2022-12-18T16:17:18.597Z,101820.44
2022-12-18T16:19:45.892Z,101824.00
2022-12-18T16:22:29.921Z,101822.25
2022-12-18T16:24:58.616Z,101833.75
2022-12-18T16:27:26.280Z,101809.84
2022-12-18T16:29:53.074Z,101810.72
2022-12-18T16:32:23.423Z,101799.22
2022-12-18T16:34:50.408Z,101811.63
2022-12-18T16:37:17.592Z,101800.16
2022-12-18T16:39:45.655Z,101797.50
2022-12-18T16:42:19.822Z,101795.72
2022-12-18T16:44:49.162Z,101791.28
2022-12-18T16:47:17.519Z,101788.56
2022-12-18T16:49:45.960Z,101779.72
2022-12-18T16:52:13.951Z,101781.53
2022-12-18T16:54:40.886Z,101776.25
2022-12-18T16:57:09.601Z,101777.16
2022-12-18T16:59:36.382Z,101783.31
2022-12-18T17:02:11.678Z,101779.72
2022-12-18T17:04:38.632Z,101778.00
2022-12-18T17:07:05.449Z,101770.91
2022-12-18T17:09:32.401Z,101760.31
2022-12-18T17:12:03.956Z,101761.22
2022-12-18T17:14:33.325Z,101762.13
2022-12-18T17:17:20.976Z,101762.97
2022-12-18T17:19:47.839Z,101770.03
2022-12-18T17:22:14.571Z,101756.75
2022-12-18T17:24:41.296Z,101774.44
2022-12-18T17:27:08.897Z,101774.44
2022-12-18T17:29:35.949Z,101782.31
2022-12-18T17:32:02.832Z,101776.16
2022-12-18T17:34:29.990Z,101779.69
2022-12-18T17:36:57.548Z,101784.91
2022-12-18T17:39:24.333Z,101786.72
2022-12-18T17:41:51.095Z,101777.00
2022-12-18T17:44:18.739Z,101779.66
2022-12-18T17:46:46.112Z,101778.75
2022-12-18T17:49:14.570Z,101775.19
2022-12-18T17:51:43.003Z,101783.13
2022-12-18T17:54:11.214Z,101787.50
2022-12-18T17:56:38.838Z,101791.94
2022-12-18T17:59:07.205Z,101780.38
2022-12-18T18:01:38.500Z,101786.56
2022-12-18T18:04:09.398Z,101779.47
2022-12-18T18:06:38.683Z,101781.22
2022-12-18T18:09:16.283Z,101782.16
2022-12-18T18:12:05.371Z,101775.09
2022-12-18T18:14:33.061Z,101783.91
2022-12-18T18:17:04.048Z,101784.78
2022-12-18T18:19:32.984Z,101790.13
2022-12-18T18:22:00.179Z,101786.63
2022-12-18T18:24:27.114Z,101786.56
2022-12-18T18:26:56.842Z,101775.94
2022-12-18T18:29:26.594Z,101774.16
2022-12-18T18:31:53.932Z,101769.78
2022-12-18T18:34:24.368Z,101774.19
2022-12-18T18:36:51.496Z,101768.91
2022-12-18T18:39:18.798Z,101770.69
2022-12-18T18:41:47.898Z,101770.66
2022-12-18T18:44:16.949Z,101770.69
2022-12-18T18:46:44.874Z,101764.53
2022-12-18T18:49:13.715Z,101760.13
2022-12-18T18:51:42.158Z,101763.66
2022-12-18T18:54:10.066Z,101760.09
2022-12-18T18:57:04.131Z,101751.22
2022-12-18T18:59:24.446Z,101762.75
2022-12-18T19:01:58.302Z,101756.56
2022-12-18T19:04:25.149Z,101754.78
2022-12-18T19:06:52.871Z,101760.09
2022-12-18T19:09:19.725Z,101750.28
2022-12-18T19:12:04.939Z,101759.94
2022-12-18T19:14:31.871Z,101758.16
2022-12-18T19:16:58.698Z,101764.31
2022-12-18T19:19:27.095Z,101758.16
2022-12-18T19:21:53.920Z,101756.41
2022-12-18T19:24:22.394Z,101752.81
2022-12-18T19:26:49.390Z,101758.13
2022-12-18T19:29:16.223Z,101758.06
2022-12-18T19:31:43.177Z,101748.38
2022-12-18T19:34:10.027Z,101755.41
2022-12-18T19:36:40.343Z,101751.88
2022-12-18T19:39:17.991Z,101755.44
2022-12-18T19:41:46.727Z,101764.28
2022-12-18T19:44:17.091Z,101760.75
2022-12-18T19:46:46.173Z,101766.94
2022-12-18T19:49:17.295Z,101768.69
2022-12-18T19:51:45.448Z,101772.25
2022-12-18T19:54:17.133Z,101770.53
2022-12-18T19:56:45.863Z,101762.59
2022-12-18T19:59:13.812Z,101758.22
2022-12-18T20:01:41.431Z,101754.72
2022-12-18T20:04:08.462Z,101755.66
2022-12-18T20:06:48.718Z,101744.25
2022-12-18T20:09:15.765Z,101755.78
2022-12-18T20:11:43.377Z,101756.69
2022-12-18T20:14:12.328Z,101761.97
2022-12-18T20:16:39.663Z,101759.34
2022-12-18T20:19:08.787Z,101760.22
2022-12-18T20:21:36.405Z,101761.97
2022-12-18T20:24:03.427Z,101752.28
2022-12-18T20:26:30.407Z,101758.44
2022-12-18T20:28:57.193Z,101764.63
2022-12-18T20:31:24.724Z,101756.72
2022-12-18T20:33:54.382Z,101762.03
2022-12-18T20:36:23.484Z,101768.22
2022-12-18T20:38:57.222Z,101754.94
2022-12-18T20:41:27.377Z,101764.69
2022-12-18T20:44:06.268Z,101759.38
2022-12-18T20:46:37.769Z,101758.47
2022-12-18T20:49:04.536Z,101754.94
2022-12-18T20:51:32.293Z,101754.03
2022-12-18T20:53:59.702Z,101754.88
2022-12-18T20:56:30.660Z,101749.59
2022-12-18T20:58:59.966Z,101744.25
2022-12-18T21:01:29.683Z,101744.25
2022-12-18T21:03:57.248Z,101746.03
2022-12-18T21:06:24.969Z,101732.78
2022-12-18T21:08:51.808Z,101734.53
2022-12-18T21:11:40.320Z,101735.44
2022-12-18T21:14:14.280Z,101729.22
2022-12-18T21:16:43.776Z,101721.25
2022-12-18T21:19:13.270Z,101717.72
2022-12-18T21:21:41.534Z,101714.16
2022-12-18T21:24:09.885Z,101710.63
2022-12-18T21:26:44.872Z,101695.56
2022-12-18T21:29:16.722Z,101689.38
2022-12-18T21:31:45.447Z,101695.56
2022-12-18T21:34:23.248Z,101684.94
2022-12-18T21:36:50.253Z,101692.81
2022-12-18T21:39:17.673Z,101696.31
2022-12-18T21:42:05.061Z,101696.31
2022-12-18T21:44:36.326Z,101691.91
2022-12-18T21:47:22.387Z,101696.31
2022-12-18T21:49:52.010Z,101685.72
2022-12-18T21:52:21.641Z,101691.88
2022-12-18T21:55:01.908Z,101687.44
2022-12-18T21:57:35.057Z,101676.84
2022-12-18T22:00:02.245Z,101680.41
2022-12-18T22:02:39.330Z,101679.47
2022-12-18T22:05:07.099Z,101665.34
2022-12-18T22:07:34.096Z,101667.06
2022-12-18T22:10:02.090Z,101666.22
2022-12-18T22:12:43.369Z,101658.22
2022-12-18T22:15:21.036Z,101650.28
2022-12-18T22:17:50.629Z,101657.38
2022-12-18T22:20:20.032Z,101643.25
2022-12-18T22:22:48.247Z,101627.34
2022-12-18T22:25:15.032Z,101622.06
2022-12-18T22:27:41.820Z,101624.69
2022-12-18T22:30:11.202Z,101620.25
2022-12-18T22:32:37.933Z,101609.63
2022-12-18T22:35:09.534Z,101611.41
2022-12-18T22:37:41.074Z,101607.00
2022-12-18T22:40:22.232Z,101598.13
2022-12-18T22:42:51.435Z,101595.41
2022-12-18T22:45:20.304Z,101592.78
2022-12-18T22:47:47.130Z,101591.03
2022-12-18T22:50:15.364Z,101593.69
2022-12-18T22:52:42.533Z,101597.19
2022-12-18T22:55:09.526Z,101588.31
2022-12-18T22:57:36.466Z,101584.75
2022-12-18T23:00:06.463Z,101575.03
2022-12-18T23:02:33.316Z,101568.81
2022-12-18T23:05:00.140Z,101562.63
2022-12-18T23:07:26.929Z,101556.44
2022-12-18T23:10:00.635Z,101552.91
2022-12-18T23:12:28.121Z,101551.03
2022-12-18T23:14:54.896Z,101538.69
2022-12-18T23:17:21.768Z,101534.25
2022-12-18T23:19:49.362Z,101527.22
2022-12-18T23:22:17.751Z,101517.50
2022-12-18T23:24:44.574Z,101526.34
2022-12-18T23:27:11.769Z,101527.06
2022-12-18T23:29:40.039Z,101529.63
2022-12-18T23:32:07.678Z,101524.25
2022-12-18T23:34:34.797Z,101510.13
2022-12-18T23:37:03.545Z,101519.97
2022-12-18T23:39:30.522Z,101515.56
2022-12-18T23:42:01.469Z,101509.38
2022-12-18T23:44:28.509Z,101499.59
2022-12-18T23:46:55.535Z,101492.59
2022-12-18T23:49:22.972Z,101487.28
2022-12-18T23:51:50.317Z,101512.03
2022-12-18T23:54:17.560Z,101496.00
2022-12-18T23:56:49.438Z,101488.03
2022-12-18T23:59:16.248Z,101487.03
